Time;durP1;ratioP1;P1;durP2;ratioP2;P2;SDS_P1;SDS_P2;PMS_P1;PMS_P2;Temp;Humidity;BMP_temperature;BMP_pressure;BME280_temperature;BME280_humidity;BME280_pressure;Samples;Min_cycle;Max_cycle;Signal;HPM_P1;HPM_P2
2023/05/22 00:01:37;;;;;;;11.32;10.55;;;;;;;16.78;100.00;98212.44;4090278;28;20581;-45
2023/05/22 00:03:39;;;;;;;11.20;10.45;;;;;;;16.82;100.00;98208.78;4096817;28;20212;-45
2023/05/22 00:05:41;;;;;;;11.70;10.80;;;;;;;16.87;100.00;98211.47;4113113;28;20214;-46
2023/05/22 00:07:43;;;;;;;12.15;10.93;;;;;;;16.80;100.00;98199.97;4082834;29;20207;-47
2023/05/22 00:09:45;;;;;;;11.63;10.80;;;;;;;16.77;100.00;98211.59;4097610;28;20219;-46
2023/05/22 00:11:47;;;;;;;11.88;10.90;;;;;;;16.76;100.00;98204.44;4076764;29;20711;-46
2023/05/22 00:13:49;;;;;;;11.90;11.10;;;;;;;16.73;100.00;98207.81;4090348;28;20208;-46
2023/05/22 00:15:50;;;;;;;11.93;10.88;;;;;;;16.72;100.00;98202.56;4097267;28;20224;-45
2023/05/22 00:17:52;;;;;;;11.95;11.15;;;;;;;16.73;100.00;98205.03;4081436;29;20208;-45
2023/05/22 00:19:54;;;;;;;12.68;11.82;;;;;;;16.79;100.00;98203.84;4094081;28;20207;-45
2023/05/22 00:21:56;;;;;;;11.60;10.80;;;;;;;16.81;100.00;98204.38;4095323;28;20223;-45
2023/05/22 00:23:58;;;;;;;10.93;10.13;;;;;;;16.79;100.00;98198.31;4097388;28;20258;-45
2023/05/22 00:26:00;;;;;;;11.50;10.70;;;;;;;16.74;100.00;98206.69;4081996;29;20283;-45
2023/05/22 00:28:02;;;;;;;11.43;10.63;;;;;;;16.66;100.00;98201.81;4096628;28;20618;-46
2023/05/22 00:30:07;;;;;;;12.65;11.75;;;;;;;16.62;100.00;98205.47;4098673;28;20709;-45
2023/05/22 00:32:09;;;;;;;11.43;10.52;;;;;;;16.60;100.00;98204.94;4097585;28;20235;-45
2023/05/22 00:34:11;;;;;;;12.23;11.32;;;;;;;16.57;100.00;98203.56;4108422;28;20214;-45
2023/05/22 00:36:12;;;;;;;12.18;11.15;;;;;;;16.54;100.00;98201.41;4095587;28;20223;-45
2023/05/22 00:38:29;;;;;;;13.32;12.05;;;;;;;16.46;100.00;98199.31;4099815;28;20208;-45
2023/05/22 00:40:31;;;;;;;12.57;11.63;;;;;;;16.46;100.00;98204.00;4096675;28;20318;-47
2023/05/22 00:42:33;;;;;;;12.13;11.02;;;;;;;16.44;100.00;98201.53;4095778;28;20215;-45
2023/05/22 00:44:35;;;;;;;11.93;11.10;;;;;;;16.48;100.00;98197.06;4080598;29;20773;-46
2023/05/22 00:46:36;;;;;;;12.68;11.77;;;;;;;16.55;100.00;98200.28;4098387;28;20223;-46
2023/05/22 00:48:38;;;;;;;12.82;11.88;;;;;;;16.55;100.00;98192.00;4094971;28;20216;-46
2023/05/22 00:50:41;;;;;;;12.68;11.68;;;;;;;16.53;100.00;98202.53;4097863;28;20219;-46
2023/05/22 00:52:44;;;;;;;11.57;10.77;;;;;;;16.56;100.00;98199.19;4098856;28;20242;-46
2023/05/22 00:54:47;;;;;;;12.50;11.40;;;;;;;16.58;100.00;98208.00;4093834;28;20633;-45
2023/05/22 00:56:49;;;;;;;12.25;11.45;;;;;;;16.56;100.00;98209.41;4099641;28;20221;-46
2023/05/22 00:58:51;;;;;;;11.98;11.18;;;;;;;16.56;100.00;98199.19;4091340;28;20222;-45
2023/05/22 01:00:54;;;;;;;14.02;12.82;;;;;;;16.48;100.00;98202.59;4094371;28;20211;-45
2023/05/22 01:02:56;;;;;;;13.48;12.48;;;;;;;16.52;100.00;98202.84;4091142;28;20231;-45
2023/05/22 01:04:58;;;;;;;11.25;10.45;;;;;;;16.52;100.00;98197.31;4095206;28;20262;-45
2023/05/22 01:07:01;;;;;;;12.20;11.40;;;;;;;16.56;100.00;98198.38;4096792;28;20662;-45
2023/05/22 01:09:04;;;;;;;13.50;12.50;;;;;;;16.58;100.00;98196.97;4086140;28;20214;-47
2023/05/22 01:11:14;;;;;;;13.07;12.18;;;;;;;16.51;100.00;98202.03;4096462;28;20219;-45
2023/05/22 01:13:45;;;;;;;12.60;11.80;;;;;;;16.47;100.00;98200.97;4097076;28;20203;-45
2023/05/22 01:16:00;;;;;;;14.32;13.32;;;;;;;16.24;100.00;98196.22;4084850;28;20216;-45
2023/05/22 01:18:18;;;;;;;13.75;12.65;;;;;;;16.11;100.00;98202.47;4093788;28;20257;-45
2023/05/22 01:20:24;;;;;;;13.82;12.73;;;;;;;15.80;100.00;98209.44;4109281;28;20213;-45
2023/05/22 01:22:50;;;;;;;14.77;13.77;;;;;;;15.86;100.00;98205.50;4110338;28;20748;-45
2023/05/22 01:25:06;;;;;;;13.10;12.10;;;;;;;15.93;100.00;98199.63;4091285;28;20215;-45
2023/05/22 01:27:36;;;;;;;14.00;13.00;;;;;;;15.98;100.00;98194.91;4113621;28;20665;-44
2023/05/22 01:29:38;;;;;;;13.68;12.68;;;;;;;16.12;100.00;98197.75;4093749;28;20524;-46
2023/05/22 01:31:42;;;;;;;15.68;14.40;;;;;;;15.65;100.00;98193.03;4109932;28;20239;-46
2023/05/22 01:33:57;;;;;;;14.25;13.05;;;;;;;15.78;100.00;98191.50;4104879;28;20262;-44
2023/05/22 01:36:00;;;;;;;13.85;12.70;;;;;;;15.86;100.00;98188.94;4098371;28;20218;-47
2023/05/22 01:38:02;;;;;;;14.00;13.05;;;;;;;15.89;100.00;98193.88;4092445;28;20215;-44
2023/05/22 01:40:08;;;;;;;13.50;12.50;;;;;;;16.00;100.00;98198.19;4090499;28;20233;-45
2023/05/22 01:42:09;;;;;;;14.23;13.23;;;;;;;15.98;100.00;98192.13;4105564;28;20277;-44
2023/05/22 01:44:11;;;;;;;13.55;12.65;;;;;;;15.96;100.00;98194.34;4106289;28;20261;-44
2023/05/22 01:46:13;;;;;;;13.95;13.05;;;;;;;16.02;100.00;98195.94;4107246;28;20222;-46
2023/05/22 01:48:15;;;;;;;13.57;12.68;;;;;;;16.04;100.00;98199.22;4096770;28;20221;-46
2023/05/22 01:50:17;;;;;;;13.00;12.07;;;;;;;16.04;100.00;98199.22;4086293;28;20706;-45
2023/05/22 01:52:34;;;;;;;13.27;12.38;;;;;;;15.96;100.00;98194.34;4090554;28;20241;-44
2023/05/22 01:54:41;;;;;;;14.60;13.18;;;;;;;15.99;100.00;98203.97;4091912;28;20251;-45
2023/05/22 01:57:21;;;;;;;15.10;14.05;;;;;;;15.94;100.00;98206.78;4097776;28;20231;-46
2023/05/22 01:59:53;;;;;;;14.73;13.55;;;;;;;15.98;100.00;98207.84;4092122;28;20261;-45
2023/05/22 02:01:57;;;;;;;13.07;12.00;;;;;;;15.98;100.00;98202.34;4093568;28;21358;-45
2023/05/22 02:03:59;;;;;;;12.55;11.70;;;;;;;15.91;100.00;98208.19;4094025;28;20599;-45
2023/05/22 02:06:05;;;;;;;12.32;11.43;;;;;;;15.92;100.00;98209.84;4080175;28;20271;-45
2023/05/22 02:08:07;;;;;;;12.07;11.23;;;;;;;15.89;100.00;98199.38;4093066;28;20666;-44
2023/05/22 02:10:10;;;;;;;13.32;12.43;;;;;;;15.86;100.00;98204.66;4099166;28;20222;-44
2023/05/22 02:12:12;;;;;;;12.73;11.93;;;;;;;15.83;100.00;98205.25;4093971;28;20322;-45
2023/05/22 02:14:14;;;;;;;13.15;12.05;;;;;;;15.80;100.00;98206.66;4081623;29;20590;-44
2023/05/22 02:16:18;;;;;;;13.50;12.52;;;;;;;15.78;100.00;98208.91;4095286;28;20222;-44
2023/05/22 02:18:21;;;;;;;12.73;11.88;;;;;;;15.78;100.00;98200.63;4096627;28;20206;-45
2023/05/22 02:20:22;;;;;;;12.80;11.80;;;;;;;15.73;100.00;98205.34;4076297;28;20252;-45
2023/05/22 02:22:25;;;;;;;15.00;12.68;;;;;;;15.63;100.00;98200.75;4094933;28;20223;-46
2023/05/22 02:24:31;;;;;;;14.18;13.15;;;;;;;15.55;100.00;98203.31;4095798;28;20221;-46
2023/05/22 02:26:36;;;;;;;12.45;11.55;;;;;;;15.66;100.00;98204.88;4098532;28;20213;-46
2023/05/22 02:28:38;;;;;;;14.75;13.75;;;;;;;15.41;100.00;98202.31;4095752;28;20274;-45
2023/05/22 02:30:40;;;;;;;14.55;12.82;;;;;;;14.97;100.00;98201.53;4091511;28;20598;-46
2023/05/22 02:32:42;;;;;;;14.73;13.68;;;;;;;15.21;100.00;98197.78;4078144;29;20714;-46
2023/05/22 02:34:44;;;;;;;15.15;14.10;;;;;;;15.21;100.00;98202.44;4093669;28;20216;-47
2023/05/22 02:36:46;;;;;;;13.98;12.88;;;;;;;15.21;100.00;98200.53;4075595;29;20695;-45
2023/05/22 02:38:48;;;;;;;13.90;12.82;;;;;;;15.24;100.00;98207.41;4097060;28;20550;-47
2023/05/22 02:40:50;;;;;;;14.43;13.43;;;;;;;15.23;100.00;98206.56;4098469;28;20263;-45
2023/05/22 02:42:52;;;;;;;13.55;12.65;;;;;;;15.28;100.00;98202.94;4092337;28;20319;-44
2023/05/22 02:44:53;;;;;;;14.30;13.32;;;;;;;15.28;100.00;98203.78;4088729;28;20226;-45
2023/05/22 02:46:55;;;;;;;14.23;13.25;;;;;;;15.30;100.00;98212.59;4096561;28;20212;-46
2023/05/22 02:49:00;;;;;;;13.57;12.68;;;;;;;15.32;100.00;98201.31;4092536;28;20222;-45
2023/05/22 02:51:02;;;;;;;12.73;11.82;;;;;;;15.30;100.00;98201.56;4096664;28;20207;-45
2023/05/22 02:53:04;;;;;;;12.63;11.73;;;;;;;15.38;100.00;98197.41;4099768;28;20616;-47
2023/05/22 02:55:07;;;;;;;12.65;11.85;;;;;;;15.41;100.00;98208.69;4110789;28;20282;-46
2023/05/22 02:57:08;;;;;;;13.18;12.30;;;;;;;15.40;100.00;98189.66;4112441;28;20206;-45
2023/05/22 02:59:10;;;;;;;14.25;13.25;;;;;;;15.34;100.00;98202.66;4096164;28;20280;-45
2023/05/22 03:01:12;;;;;;;13.98;12.98;;;;;;;15.34;100.00;98202.66;4103916;28;20206;-45
2023/05/22 03:03:16;;;;;;;15.20;13.02;;;;;;;15.29;100.00;98204.63;4086297;29;20211;-45
2023/05/22 03:05:19;;;;;;;14.07;13.05;;;;;;;15.27;100.00;98201.31;4098408;28;20206;-45
2023/05/22 03:07:20;;;;;;;13.23;12.20;;;;;;;15.23;100.00;98206.56;4105688;28;20211;-46
2023/05/22 03:09:22;;;;;;;13.57;12.68;;;;;;;15.25;100.00;98203.53;4097998;28;20213;-45
2023/05/22 03:11:24;;;;;;;14.80;13.60;;;;;;;15.16;100.00;98200.56;4101730;28;20278;-45
2023/05/22 03:13:26;;;;;;;15.82;14.52;;;;;;;15.15;100.00;98204.44;4099786;28;20231;-45
2023/05/22 03:15:28;;;;;;;11.70;10.88;;;;;;;15.17;100.00;98199.44;4094024;28;20215;-45
2023/05/22 03:17:29;;;;;;;13.32;12.13;;;;;;;15.09;100.00;98205.56;4110463;28;20214;-45
2023/05/22 03:19:31;;;;;;;13.07;12.18;;;;;;;15.08;100.00;98203.94;4097573;28;20215;-45
2023/05/22 03:21:33;;;;;;;13.25;12.25;;;;;;;15.11;100.00;98203.34;4109315;28;20302;-46
2023/05/22 03:23:35;;;;;;;12.60;11.73;;;;;;;15.14;100.00;98207.47;4098264;28;20211;-45
2023/05/22 03:25:37;;;;;;;14.60;13.60;;;;;;;15.07;100.00;98205.06;4110710;28;20211;-46
2023/05/22 03:27:39;;;;;;;13.20;12.30;;;;;;;15.01;100.00;98197.91;4091382;28;20219;-46
2023/05/22 03:29:41;;;;;;;12.57;11.68;;;;;;;14.95;100.00;98207.31;4103495;28;20211;-45
2023/05/22 03:31:43;;;;;;;13.35;12.45;;;;;;;14.91;100.00;98208.19;4100228;28;20235;-45
2023/05/22 03:33:45;;;;;;;13.40;12.40;;;;;;;14.85;100.00;98209.31;4100873;28;20216;-45
2023/05/22 03:35:47;;;;;;;12.60;11.43;;;;;;;14.88;100.00;98204.06;4101587;28;20301;-45
2023/05/22 03:37:49;;;;;;;13.23;12.30;;;;;;;14.85;100.00;98210.16;4112322;28;20206;-46
2023/05/22 03:39:50;;;;;;;13.52;12.60;;;;;;;14.82;100.00;98210.72;4093038;28;20219;-45
2023/05/22 03:41:52;;;;;;;14.02;12.98;;;;;;;14.85;100.00;98209.31;4109184;28;20234;-46
2023/05/22 03:43:54;;;;;;;14.65;13.35;;;;;;;14.73;100.00;98214.34;4089775;28;20226;-45
2023/05/22 03:45:58;;;;;;;14.35;13.32;;;;;;;14.65;100.00;98213.03;4093710;28;20596;-45
2023/05/22 03:48:00;;;;;;;13.32;12.30;;;;;;;14.68;100.00;98220.72;4091740;28;20969;-45
2023/05/22 03:50:02;;;;;;;15.43;13.88;;;;;;;14.65;100.00;98210.28;4094596;28;20211;-45
2023/05/22 03:52:04;;;;;;;13.48;12.52;;;;;;;14.61;100.00;98213.84;4091672;28;20230;-45
2023/05/22 03:54:05;;;;;;;14.00;13.05;;;;;;;14.58;100.00;98215.25;4092933;28;20697;-45
2023/05/22 03:56:10;;;;;;;13.18;11.73;;;;;;;14.59;100.00;98211.41;4087459;28;20212;-46
2023/05/22 03:58:12;;;;;;;13.70;12.63;;;;;;;14.58;100.00;98208.94;4092106;28;20223;-46
2023/05/22 04:00:15;;;;;;;13.38;12.40;;;;;;;14.58;100.00;98209.72;4094036;28;20207;-47
2023/05/22 04:02:17;;;;;;;14.00;13.10;;;;;;;14.63;100.00;98214.41;4091369;28;20664;-45
2023/05/22 04:04:19;;;;;;;13.68;12.75;;;;;;;14.63;100.00;98211.66;4089694;28;20214;-45
2023/05/22 04:06:22;;;;;;;13.80;12.70;;;;;;;14.60;100.00;98213.06;4092690;28;20254;-45
2023/05/22 04:08:24;;;;;;;14.27;13.27;;;;;;;14.59;100.00;98211.41;4093230;28;20216;-45
2023/05/22 04:10:25;;;;;;;15.25;14.15;;;;;;;14.58;100.00;98209.72;4090756;28;20211;-45
2023/05/22 04:12:27;;;;;;;13.68;12.77;;;;;;;14.57;100.00;98213.59;4090109;28;20238;-47
2023/05/22 04:14:29;;;;;;;13.30;12.40;;;;;;;14.59;100.00;98216.91;4078750;29;20227;-45
2023/05/22 04:16:32;;;;;;;12.43;11.63;;;;;;;14.63;100.00;98217.97;4103097;28;20237;-45
2023/05/22 04:18:34;;;;;;;13.40;12.07;;;;;;;14.65;100.00;98221.28;4091771;28;20227;-45
2023/05/22 04:20:36;;;;;;;14.85;13.85;;;;;;;14.70;100.00;98224.00;4074092;29;20224;-45
2023/05/22 04:22:38;;;;;;;13.45;12.38;;;;;;;14.74;100.00;98219.59;4088289;28;20255;-45
2023/05/22 04:24:40;;;;;;;14.63;13.55;;;;;;;14.78;100.00;98220.69;4074290;29;20257;-45
2023/05/22 04:26:43;;;;;;;13.35;12.45;;;;;;;14.81;100.00;98217.34;4075664;29;20267;-48
2023/05/22 04:28:46;;;;;;;13.57;12.68;;;;;;;14.80;100.00;98223.97;4107667;28;20273;-46
2023/05/22 04:30:48;;;;;;;13.88;12.77;;;;;;;14.77;100.00;98220.94;4093256;28;20215;-46
2023/05/22 04:32:50;;;;;;;15.18;14.18;;;;;;;14.75;100.00;98215.72;4087288;28;20231;-45
2023/05/22 04:34:52;;;;;;;16.08;14.70;;;;;;;14.72;100.00;98216.31;4090832;28;20593;-46
2023/05/22 04:36:55;;;;;;;14.60;13.55;;;;;;;14.75;100.00;98220.38;4089246;28;20208;-46
2023/05/22 04:38:57;;;;;;;14.38;13.27;;;;;;;14.77;100.00;98215.44;4087724;28;20689;-45
2023/05/22 04:40:59;;;;;;;14.38;13.38;;;;;;;14.83;100.00;98212.34;4092148;28;21793;-46
2023/05/22 04:43:02;;;;;;;14.50;13.50;;;;;;;14.90;100.00;98223.88;4094201;28;20218;-45
2023/05/22 04:45:05;;;;;;;15.52;14.52;;;;;;;14.90;100.00;98223.88;4073184;29;20231;-46
2023/05/22 04:47:13;;;;;;;14.63;13.40;;;;;;;14.93;100.00;98223.34;4090293;28;20211;-46
2023/05/22 04:49:15;;;;;;;15.13;14.02;;;;;;;14.95;100.00;98220.28;4091823;28;20214;-46
2023/05/22 04:51:17;;;;;;;15.32;14.23;;;;;;;14.97;100.00;98224.38;4094116;28;20251;-47
2023/05/22 04:53:18;;;;;;;16.77;15.63;;;;;;;14.96;100.00;98222.75;4107079;28;21254;-46
2023/05/22 04:55:21;;;;;;;14.93;13.93;;;;;;;14.97;100.00;98229.91;4094974;28;20267;-47
2023/05/22 04:57:24;;;;;;;15.52;14.23;;;;;;;15.05;100.00;98226.56;4094517;28;20667;-46
2023/05/22 04:59:26;;;;;;;15.40;14.40;;;;;;;14.97;100.00;98224.38;4090775;28;20211;-48
2023/05/22 05:01:28;;;;;;;14.85;13.85;;;;;;;14.97;100.00;98223.59;4090020;28;20232;-45
2023/05/22 05:03:33;;;;;;;16.00;14.90;;;;;;;14.92;100.00;98227.19;4076045;29;20211;-46
2023/05/22 05:05:37;;;;;;;15.10;14.07;;;;;;;14.93;100.00;98233.53;4091093;28;20217;-46
2023/05/22 05:07:42;;;;;;;14.60;13.60;;;;;;;15.01;100.00;98232.91;4089177;28;20211;-46
2023/05/22 05:09:44;;;;;;;14.98;13.68;;;;;;;15.04;100.00;98229.59;4074435;29;20658;-45
2023/05/22 05:11:46;;;;;;;14.55;13.25;;;;;;;15.05;100.00;98232.09;4091558;28;20244;-47
2023/05/22 05:13:48;;;;;;;15.52;14.40;;;;;;;15.15;100.00;98236.69;4091173;28;20227;-45
2023/05/22 05:15:50;;;;;;;13.45;12.55;;;;;;;15.17;100.00;98234.47;4090627;28;20673;-47
2023/05/22 05:17:52;;;;;;;15.05;13.95;;;;;;;15.20;100.00;98240.25;4092435;28;20693;-46
2023/05/22 05:19:55;;;;;;;14.35;12.90;;;;;;;15.27;100.00;98240.75;4095431;28;20278;-45
2023/05/22 05:21:57;;;;;;;14.88;11.65;;;;;;;15.34;100.00;98235.75;4090753;28;20239;-44
2023/05/22 05:23:59;;;;;;;12.65;11.75;;;;;;;15.36;100.00;98230.75;4080016;29;20203;-45
2023/05/22 05:26:02;;;;;;;13.20;12.18;;;;;;;15.36;100.00;98238.22;4093655;28;20216;-45
2023/05/22 05:28:09;;;;;;;14.55;13.45;;;;;;;15.38;100.00;98236.84;4095025;28;20253;-45
2023/05/22 05:30:12;;;;;;;15.88;14.73;;;;;;;15.37;100.00;98239.88;4094440;28;20202;-46
2023/05/22 05:32:15;;;;;;;14.63;13.63;;;;;;;15.41;100.00;98241.75;4095698;28;20223;-45
2023/05/22 05:34:17;;;;;;;14.13;13.15;;;;;;;15.54;100.00;98241.09;4099315;28;20296;-44
2023/05/22 05:36:19;;;;;;;14.70;13.57;;;;;;;15.69;100.00;98232.69;4096750;28;20210;-45
2023/05/22 05:38:21;;;;;;;14.50;13.48;;;;;;;15.76;100.00;98233.19;4095740;28;20207;-45
2023/05/22 05:40:23;;;;;;;14.40;13.40;;;;;;;15.75;100.00;98242.56;4090259;28;20204;-46
2023/05/22 05:42:25;;;;;;;16.10;14.90;;;;;;;15.49;100.00;98248.63;4088723;28;20705;-45
2023/05/22 05:44:26;;;;;;;15.68;14.60;;;;;;;15.58;100.00;98249.63;4109558;28;20223;-45
2023/05/22 05:46:28;;;;;;;17.42;15.93;;;;;;;15.62;100.00;98247.94;4116529;28;20269;-45
2023/05/22 05:48:30;;;;;;;17.67;16.17;;;;;;;15.54;100.00;98252.16;4112120;28;20282;-46
2023/05/22 05:50:32;;;;;;;17.38;16.13;;;;;;;15.49;100.00;98248.63;4094240;28;20262;-44
2023/05/22 05:52:34;;;;;;;19.17;17.80;;;;;;;15.70;100.00;98239.84;4108325;28;20226;-45
2023/05/22 05:54:36;;;;;;;18.67;17.38;;;;;;;15.99;100.00;98237.94;4107935;28;20214;-45
2023/05/22 05:56:38;;;;;;;17.10;15.88;;;;;;;16.24;100.00;98239.59;4109865;28;20218;-45
2023/05/22 05:58:40;;;;;;;18.02;16.90;;;;;;;16.45;100.00;98247.41;4105153;28;20240;-46
2023/05/22 06:00:42;;;;;;;15.23;14.13;;;;;;;16.80;100.00;98249.72;4116494;28;20232;-47
2023/05/22 06:02:46;;;;;;;15.98;14.82;;;;;;;17.00;100.00;98249.44;4118540;28;20680;-46
2023/05/22 06:04:52;;;;;;;15.18;14.07;;;;;;;17.03;100.00;98248.81;4104745;28;21008;-46
2023/05/22 06:06:54;;;;;;;18.48;15.65;;;;;;;17.11;100.00;98259.25;4095243;28;20216;-46
2023/05/22 06:08:56;;;;;;;18.15;14.77;;;;;;;17.11;100.00;98256.47;4106227;28;20547;-44
2023/05/22 06:10:58;;;;;;;24.83;15.50;;;;;;;17.00;100.00;98253.00;4111236;28;20211;-46
2023/05/22 06:13:00;;;;;;;15.93;14.80;;;;;;;16.96;100.00;98253.91;4093947;28;20223;-47
2023/05/22 06:15:04;;;;;;;16.52;15.23;;;;;;;17.05;100.00;98260.44;4093745;28;20210;-44
2023/05/22 06:17:08;;;;;;;16.58;15.18;;;;;;;17.40;100.00;98260.75;4112310;28;20269;-45
2023/05/22 06:19:10;;;;;;;16.55;15.15;;;;;;;17.56;100.00;98261.34;4095944;28;20254;-44
2023/05/22 06:21:12;;;;;;;16.55;15.07;;;;;;;17.79;100.00;98255.69;4110306;28;20207;-46
2023/05/22 06:23:14;;;;;;;16.73;14.77;;;;;;;17.85;100.00;98261.97;4115021;28;20214;-45
2023/05/22 06:25:16;;;;;;;16.30;15.20;;;;;;;18.05;100.00;98256.88;4109766;28;20253;-44
2023/05/22 06:27:22;;;;;;;16.05;14.77;;;;;;;18.30;100.00;98261.13;4109952;28;20854;-46
2023/05/22 06:29:25;;;;;;;18.00;16.42;;;;;;;18.54;100.00;98259.03;4121166;28;20214;-48
2023/05/22 06:31:27;;;;;;;16.27;14.85;;;;;;;18.54;100.00;98259.03;4098387;28;20721;-44
2023/05/22 06:33:29;;;;;;;17.95;16.15;;;;;;;18.61;100.00;98256.69;4110217;28;21160;-45
2023/05/22 06:35:31;;;;;;;16.65;15.07;;;;;;;18.75;100.00;98257.50;4126412;28;20210;-47
2023/05/22 06:37:34;;;;;;;15.93;14.57;;;;;;;18.83;100.00;98256.75;4115450;28;20347;-46
2023/05/22 06:39:37;;;;;;;25.27;16.90;;;;;;;19.05;100.00;98257.66;4115150;28;20258;-45
2023/05/22 06:41:51;;;;;;;19.00;16.98;;;;;;;18.97;100.00;98258.41;4097063;28;20270;-44
2023/05/22 06:43:53;;;;;;;17.60;16.08;;;;;;;19.21;100.00;98258.19;4101698;28;20247;-45
2023/05/22 06:45:55;;;;;;;17.33;15.40;;;;;;;19.36;100.00;98255.06;4117815;28;20222;-44
2023/05/22 06:47:57;;;;;;;16.58;15.23;;;;;;;19.54;98.85;98256.84;4118984;28;20210;-45
2023/05/22 06:49:59;;;;;;;17.52;15.35;;;;;;;19.73;98.03;98258.34;4115976;28;20296;-45
2023/05/22 06:52:02;;;;;;;16.02;14.60;;;;;;;19.83;97.13;98249.72;4114158;28;20748;-46
2023/05/22 06:54:06;;;;;;;16.23;15.02;;;;;;;19.92;98.34;98260.91;4113556;28;20247;-44
2023/05/22 06:56:08;;;;;;;16.65;15.25;;;;;;;20.09;97.07;98250.75;4115085;28;20866;-46
2023/05/22 06:58:10;;;;;;;15.93;14.45;;;;;;;20.15;97.47;98257.00;4096857;28;20226;-46
2023/05/22 07:00:13;;;;;;;15.93;14.68;;;;;;;20.45;96.90;98261.75;4125383;28;20653;-45
2023/05/22 07:02:15;;;;;;;16.13;14.80;;;;;;;20.64;95.41;98259.53;4115279;28;20234;-44
2023/05/22 07:04:17;;;;;;;16.67;15.57;;;;;;;20.65;95.02;98261.19;4116909;28;20572;-44
2023/05/22 07:06:19;;;;;;;18.10;16.90;;;;;;;20.37;95.41;98266.13;4112033;28;20252;-44
2023/05/22 07:08:28;;;;;;;16.35;14.85;;;;;;;20.76;95.46;98265.28;4101993;28;20663;-44
2023/05/22 07:10:31;;;;;;;16.27;14.90;;;;;;;20.53;94.11;98263.75;4109094;28;20206;-45
2023/05/22 07:12:33;;;;;;;18.88;17.58;;;;;;;20.62;95.84;98273.75;4110460;28;20230;-44
2023/05/22 07:14:35;;;;;;;17.48;16.27;;;;;;;20.89;94.91;98267.16;4099423;28;20715;-45
2023/05/22 07:16:39;;;;;;;16.55;15.45;;;;;;;20.71;96.12;98260.69;4106566;28;20672;-45
2023/05/22 07:18:41;;;;;;;17.63;16.52;;;;;;;20.85;94.78;98266.16;4113882;28;20631;-45
2023/05/22 07:20:46;;;;;;;18.95;17.58;;;;;;;20.88;94.42;98274.72;4108760;28;20552;-44
2023/05/22 07:22:48;;;;;;;18.80;17.50;;;;;;;20.84;94.53;98270.91;4112723;28;20261;-44
2023/05/22 07:24:50;;;;;;;18.77;16.70;;;;;;;20.80;94.70;98281.03;4108495;28;20214;-46
2023/05/22 07:26:52;;;;;;;15.00;13.98;;;;;;;21.23;93.08;98278.41;4087718;28;20284;-44
2023/05/22 07:28:53;;;;;;;17.35;16.25;;;;;;;21.19;93.18;98280.19;4112681;28;20217;-46
2023/05/22 07:30:56;;;;;;;16.05;15.05;;;;;;;21.51;91.80;98286.13;4109416;28;20680;-46
2023/05/22 07:32:58;;;;;;;17.65;16.10;;;;;;;21.34;90.45;98282.50;4102497;28;20261;-46
2023/05/22 07:35:01;;;;;;;17.33;16.23;;;;;;;21.66;91.84;98277.34;4104934;28;20224;-45
2023/05/22 07:37:07;;;;;;;17.33;15.95;;;;;;;21.76;91.17;98276.19;4109529;28;20241;-45
2023/05/22 07:39:09;;;;;;;16.63;15.52;;;;;;;21.95;90.63;98279.44;4108174;28;20397;-45
2023/05/22 07:41:12;;;;;;;15.63;14.63;;;;;;;22.24;89.29;98283.19;4111478;28;20490;-44
2023/05/22 07:43:14;;;;;;;14.45;13.52;;;;;;;22.55;87.54;98278.22;4109262;28;20216;-45
2023/05/22 07:45:16;;;;;;;16.40;15.18;;;;;;;22.63;87.95;98279.34;4114247;28;20206;-45
2023/05/22 07:47:18;;;;;;;15.68;14.57;;;;;;;22.86;87.26;98283.50;4103827;28;20288;-45
2023/05/22 07:49:22;;;;;;;15.43;14.02;;;;;;;22.75;85.19;98269.13;4127949;28;20200;-45
2023/05/22 07:51:24;;;;;;;14.05;13.05;;;;;;;23.08;85.31;98274.84;4113843;28;20293;-45
2023/05/22 07:53:26;;;;;;;14.68;13.68;;;;;;;22.99;85.12;98274.91;4100642;28;20283;-45
2023/05/22 07:55:27;;;;;;;21.90;14.85;;;;;;;22.85;84.06;98281.88;4110830;28;20225;-46
2023/05/22 07:57:29;;;;;;;15.60;14.30;;;;;;;23.09;85.63;98284.84;4109984;28;20668;-45
2023/05/22 07:59:32;;;;;;;14.23;13.25;;;;;;;23.08;84.64;98286.03;4112716;28;20210;-44
2023/05/22 08:01:36;;;;;;;14.63;13.50;;;;;;;23.29;82.99;98286.91;4099014;28;20230;-44
2023/05/22 08:03:38;;;;;;;14.85;13.65;;;;;;;22.94;83.37;98285.44;4110264;28;20210;-45
2023/05/22 08:05:40;;;;;;;17.05;15.10;;;;;;;22.71;83.84;98281.28;4112354;28;20232;-44
2023/05/22 08:07:42;;;;;;;15.60;14.38;;;;;;;23.37;83.68;98288.84;4114206;28;20219;-45
2023/05/22 08:09:45;;;;;;;14.90;13.77;;;;;;;23.91;81.65;98290.63;4105157;28;20261;-45
2023/05/22 08:11:47;;;;;;;14.45;13.38;;;;;;;24.17;79.76;98298.44;4096639;28;20231;-45
2023/05/22 08:13:49;;;;;;;14.38;13.38;;;;;;;23.58;82.55;98295.28;4110721;28;20705;-44
2023/05/22 08:15:51;;;;;;;14.38;13.27;;;;;;;24.71;78.50;98301.97;4091995;28;20214;-45
2023/05/22 08:18:01;;;;;;;13.77;12.43;;;;;;;23.66;76.51;98297.19;4106583;28;20301;-44
2023/05/22 08:20:04;;;;;;;13.75;12.65;;;;;;;23.31;77.67;98295.78;4096270;28;20689;-47
2023/05/22 08:22:06;;;;;;;13.35;12.20;;;;;;;23.78;78.04;98298.91;4108315;28;20658;-45
2023/05/22 08:24:08;;;;;;;14.75;13.55;;;;;;;23.91;76.75;98299.00;4111396;28;20217;-46
2023/05/22 08:26:10;;;;;;;16.08;14.38;;;;;;;24.09;76.08;98301.28;4105891;28;20589;-45
2023/05/22 08:28:11;;;;;;;12.88;11.95;;;;;;;24.14;78.04;98299.09;4113945;28;20256;-45
2023/05/22 08:30:13;;;;;;;13.27;12.07;;;;;;;24.56;74.51;98295.09;4102326;28;20222;-45
2023/05/22 08:32:15;;;;;;;12.65;11.85;;;;;;;24.77;76.24;98290.22;4108799;28;20700;-45
2023/05/22 08:34:18;;;;;;;13.10;12.18;;;;;;;24.54;75.30;98291.78;4109811;28;20237;-45
2023/05/22 08:36:22;;;;;;;17.27;12.95;;;;;;;24.26;74.89;98285.16;4106835;28;20211;-45
2023/05/22 08:38:24;;;;;;;16.75;13.63;;;;;;;23.96;78.02;98284.81;4108428;28;20210;-46
2023/05/22 08:40:37;;;;;;;12.93;11.77;;;;;;;24.67;75.42;98276.66;4107853;28;20242;-44
2023/05/22 08:42:41;;;;;;;16.42;12.45;;;;;;;24.74;76.65;98285.31;4092614;28;20235;-44
2023/05/22 08:44:48;;;;;;;13.15;11.90;;;;;;;25.22;77.62;98279.75;4108721;28;20221;-44
2023/05/22 08:46:51;;;;;;;12.75;11.75;;;;;;;25.54;73.13;98284.41;4095448;28;20218;-44
2023/05/22 08:48:57;;;;;;;12.15;11.13;;;;;;;25.75;72.67;98282.28;4107733;28;20290;-45
2023/05/22 08:51:04;;;;;;;11.77;10.98;;;;;;;26.14;72.29;98272.25;4108907;28;20260;-45
2023/05/22 08:53:07;;;;;;;12.98;12.07;;;;;;;25.98;70.25;98282.59;4112560;28;20229;-47
2023/05/22 08:55:09;;;;;;;11.93;11.07;;;;;;;25.77;71.32;98274.31;4110989;28;20230;-44
2023/05/22 08:57:11;;;;;;;12.25;11.45;;;;;;;25.94;69.66;98285.28;4096751;28;20203;-45
2023/05/22 08:59:14;;;;;;;11.52;10.73;;;;;;;26.22;66.39;98269.28;4108460;28;20806;-44
2023/05/22 09:01:18;;;;;;;11.25;10.55;;;;;;;25.99;70.16;98268.19;4109689;28;20687;-45
2023/05/22 09:03:50;;;;;;;12.10;11.27;;;;;;;26.13;66.30;98276.22;4108222;28;20201;-45
2023/05/22 09:05:53;;;;;;;11.68;10.82;;;;;;;26.59;67.08;98273.56;4109314;28;20205;-45
2023/05/22 09:07:56;;;;;;;11.05;10.18;;;;;;;26.60;66.39;98269.56;4110555;28;20682;-45
2023/05/22 09:10:06;;;;;;;11.95;11.15;;;;;;;26.17;66.64;98275.16;4109946;28;20284;-46
2023/05/22 09:12:17;;;;;;;10.38;9.63;;;;;;;26.53;66.88;98274.97;4113819;28;20321;-45
2023/05/22 09:14:19;;;;;;;10.68;9.98;;;;;;;26.93;66.43;98272.06;4116055;28;20672;-45
2023/05/22 09:16:24;;;;;;;10.75;9.85;;;;;;;27.04;64.81;98271.13;4109430;28;20202;-45
2023/05/22 09:18:27;;;;;;;10.32;9.52;;;;;;;26.80;65.69;98279.72;4107953;28;20206;-46
2023/05/22 09:20:41;;;;;;;10.40;9.63;;;;;;;26.55;63.16;98278.28;4091225;28;20485;-46
2023/05/22 09:22:46;;;;;;;11.55;10.73;;;;;;;26.58;64.53;98282.34;4106267;28;20240;-45
2023/05/22 09:24:51;;;;;;;10.93;10.02;;;;;;;26.94;64.31;98274.50;4106696;28;20216;-44